Time;durP1;ratioP1;P1;durP2;ratioP2;P2;SDS_P1;SDS_P2;PMS_P1;PMS_P2;Temp;Humidity;BMP_temperature;BMP_pressure;BME280_temperature;BME280_humidity;BME280_pressure;Samples;Min_cycle;Max_cycle;Signal;HPM_P1;HPM_P2
2023/05/23 00:02:12;;;;;;;34.05;27.73;;;;;;;13.84;100.00;101796.59;5014463;28;20075;-75
2023/05/23 00:04:37;;;;;;;36.13;27.63;;;;;;;13.79;100.00;101800.44;5032259;28;20056;-75
2023/05/23 00:07:03;;;;;;;33.25;27.38;;;;;;;13.79;100.00;101800.44;5032648;28;20112;-74
2023/05/23 00:09:28;;;;;;;34.25;27.88;;;;;;;13.80;100.00;101788.91;5015352;28;20023;-74
2023/05/23 00:11:54;;;;;;;32.88;26.90;;;;;;;13.82;100.00;101798.53;5032185;28;20025;-74
2023/05/23 00:14:22;;;;;;;35.63;26.63;;;;;;;13.82;100.00;101798.53;5033299;28;20044;-74
2023/05/23 00:16:48;;;;;;;32.33;25.00;;;;;;;13.84;100.00;101799.25;5032618;28;20041;-80
2023/05/23 00:19:14;;;;;;;29.10;24.40;;;;;;;13.83;100.00;101798.41;5032197;28;20061;-75
2023/05/23 00:21:47;;;;;;;27.95;22.98;;;;;;;13.84;100.00;101804.53;5032427;28;20030;-75
2023/05/23 00:24:12;;;;;;;25.73;20.92;;;;;;;13.84;100.00;101797.44;5013257;28;20393;-75
2023/05/23 00:26:37;;;;;;;24.27;21.25;;;;;;;13.80;100.00;101804.75;5023360;28;20027;-75
2023/05/23 00:29:03;;;;;;;24.38;20.67;;;;;;;13.83;100.00;101806.34;5013082;28;20433;-75
2023/05/23 00:31:28;;;;;;;23.30;19.02;;;;;;;13.88;100.00;101813.94;5031331;28;20034;-75
2023/05/23 00:33:53;;;;;;;22.38;19.48;;;;;;;13.89;100.00;101810.34;5030405;28;20017;-75
2023/05/23 00:36:19;;;;;;;22.05;18.63;;;;;;;13.87;100.00;101812.25;5013436;28;20386;-76
2023/05/23 00:38:48;;;;;;;24.17;20.25;;;;;;;13.87;100.00;101812.25;5031284;28;20504;-75
2023/05/23 00:41:13;;;;;;;21.95;19.13;;;;;;;13.85;100.00;101808.88;5027747;28;20061;-75
2023/05/23 00:43:39;;;;;;;20.77;17.02;;;;;;;13.90;100.00;101810.22;5013593;28;20060;-75
2023/05/23 00:46:06;;;;;;;20.40;17.42;;;;;;;13.91;100.00;101809.28;5029962;28;20032;-75
2023/05/23 00:48:32;;;;;;;19.05;17.05;;;;;;;13.90;100.00;101804.09;5029351;28;20457;-80
2023/05/23 00:50:57;;;;;;;21.67;17.48;;;;;;;13.89;100.00;101816.47;5019812;28;20018;-74
2023/05/23 00:53:23;;;;;;;22.92;18.38;;;;;;;13.91;100.00;101819.00;5030185;28;20075;-75
2023/05/23 00:55:49;;;;;;;21.42;19.10;;;;;;;13.92;100.00;101820.69;5013130;28;20317;-75
2023/05/23 00:58:16;;;;;;;20.85;18.60;;;;;;;13.92;100.00;101820.69;5031812;28;20399;-75
2023/05/23 01:00:43;;;;;;;23.45;18.10;;;;;;;13.91;100.00;101819.00;5031801;28;20132;-79
2023/05/23 01:03:15;;;;;;;21.13;18.10;;;;;;;13.87;100.00;101814.91;5013915;28;20057;-76
2023/05/23 01:05:42;;;;;;;24.77;18.87;;;;;;;13.84;100.00;101813.31;5031174;28;20042;-76
2023/05/23 01:08:08;;;;;;;23.63;18.98;;;;;;;13.88;100.00;101830.66;5029906;28;20021;-75
2023/05/23 01:10:33;;;;;;;23.40;19.70;;;;;;;13.90;100.00;101830.56;5031902;28;20067;-74
2023/05/23 01:13:26;;;;;;;28.52;20.42;;;;;;;13.88;100.00;101833.31;5031629;28;20074;-75
2023/05/23 01:16:03;;;;;;;26.58;19.80;;;;;;;13.81;100.00;101829.41;5030472;28;20028;-75
2023/05/23 01:18:34;;;;;;;28.40;20.15;;;;;;;13.77;100.00;101833.25;5031839;28;20032;-76
2023/05/23 01:21:20;;;;;;;25.60;19.17;;;;;;;13.80;100.00;101835.66;5030661;28;20059;-76
2023/05/23 01:24:27;;;;;;;21.90;17.52;;;;;;;13.79;100.00;101831.34;5029675;28;20029;-75
2023/05/23 01:27:12;;;;;;;23.50;16.45;;;;;;;13.73;100.00;101835.25;5029844;28;20544;-75
2023/05/23 01:29:44;;;;;;;20.00;15.77;;;;;;;13.66;100.00;101831.38;5029893;28;20537;-75
2023/05/23 01:32:11;;;;;;;22.38;15.40;;;;;;;13.68;100.00;101841.84;5029450;28;20104;-75
2023/05/23 01:34:38;;;;;;;21.27;15.70;;;;;;;13.67;100.00;101842.78;5030426;28;20562;-76
2023/05/23 01:37:13;;;;;;;22.95;15.88;;;;;;;13.69;100.00;101851.47;5028848;28;20477;-79
2023/05/23 01:39:39;;;;;;;25.75;17.52;;;;;;;13.67;100.00;101843.63;5030615;28;20185;-75
2023/05/23 01:42:08;;;;;;;23.83;17.70;;;;;;;13.64;100.00;101843.84;5029314;28;20104;-75
2023/05/23 01:44:34;;;;;;;26.25;18.77;;;;;;;13.65;100.00;101850.84;5029786;28;20028;-75
2023/05/23 01:47:05;;;;;;;30.77;19.45;;;;;;;13.63;100.00;101857.19;5011862;28;20124;-79
2023/05/23 01:49:31;;;;;;;28.05;18.75;;;;;;;13.62;100.00;101852.84;5012338;28;20456;-75
2023/05/23 01:52:02;;;;;;;29.75;20.30;;;;;;;13.61;100.00;101859.94;5028727;28;20036;-75
2023/05/23 01:54:31;;;;;;;28.08;20.15;;;;;;;13.61;100.00;101857.31;5030476;28;20033;-75
2023/05/23 01:56:57;;;;;;;35.15;20.90;;;;;;;13.60;100.00;101858.22;5010949;28;20425;-75
2023/05/23 01:59:23;;;;;;;32.13;20.70;;;;;;;13.58;100.00;101846.91;5030009;28;20025;-75
2023/05/23 02:01:49;;;;;;;28.20;19.88;;;;;;;13.54;100.00;101853.38;5030555;28;20616;-75
2023/05/23 02:04:15;;;;;;;31.58;20.45;;;;;;;13.58;100.00;101854.84;5030424;28;20089;-74
2023/05/23 02:06:42;;;;;;;30.48;20.02;;;;;;;13.53;100.00;101862.25;5031346;28;20029;-75
2023/05/23 02:09:07;;;;;;;31.35;20.52;;;;;;;13.53;100.00;101867.53;5030311;28;20497;-74
2023/05/23 02:11:33;;;;;;;30.00;21.25;;;;;;;13.52;100.00;101862.38;5030482;28;20022;-75
2023/05/23 02:14:01;;;;;;;30.38;20.60;;;;;;;13.52;100.00;101865.00;5030363;28;20474;-74
2023/05/23 02:16:26;;;;;;;32.88;20.63;;;;;;;13.52;100.00;101875.59;5031003;28;20025;-74
2023/05/23 02:18:55;;;;;;;30.17;20.48;;;;;;;13.46;100.00;101864.50;5028639;28;20022;-74
2023/05/23 02:21:22;;;;;;;33.72;21.33;;;;;;;13.46;100.00;101874.22;5030180;28;20405;-75
2023/05/23 02:23:50;;;;;;;33.03;20.92;;;;;;;13.45;100.00;101873.38;5030112;28;20021;-75
2023/05/23 02:26:16;;;;;;;35.22;20.90;;;;;;;13.43;100.00;101877.06;5021424;28;20539;-78
2023/05/23 02:28:42;;;;;;;30.38;20.17;;;;;;;13.41;100.00;101877.19;5029787;28;20025;-75
2023/05/23 02:31:07;;;;;;;29.83;19.65;;;;;;;13.46;100.00;101882.16;5029172;28;20579;-75
2023/05/23 02:33:33;;;;;;;33.85;20.15;;;;;;;13.42;100.00;101883.31;5023280;28;20021;-75
2023/05/23 02:35:58;;;;;;;31.45;19.83;;;;;;;13.40;100.00;101885.22;5028797;28;20029;-74
2023/05/23 02:38:26;;;;;;;32.22;19.42;;;;;;;13.38;100.00;101877.41;5029118;28;20029;-74
2023/05/23 02:40:52;;;;;;;29.38;18.77;;;;;;;13.40;100.00;101877.28;5028406;28;20049;-75
2023/05/23 02:43:18;;;;;;;26.65;17.83;;;;;;;13.40;100.00;101877.28;5027345;28;20426;-75
2023/05/23 02:45:44;;;;;;;24.90;16.50;;;;;;;13.37;100.00;101885.44;5029108;28;20017;-75
2023/05/23 02:48:10;;;;;;;24.73;16.13;;;;;;;13.39;100.00;101880.88;5027560;28;20041;-75
2023/05/23 02:50:37;;;;;;;24.08;16.20;;;;;;;13.32;100.00;101880.47;5029046;28;20033;-75
2023/05/23 02:53:03;;;;;;;21.52;15.40;;;;;;;13.37;100.00;101877.50;5026165;28;20557;-75
2023/05/23 02:55:30;;;;;;;22.10;15.10;;;;;;;13.36;100.00;101881.09;5029057;28;20025;-74
2023/05/23 02:57:57;;;;;;;19.98;13.20;;;;;;;13.35;100.00;101880.25;5028653;28;20494;-74
2023/05/23 03:00:26;;;;;;;17.92;11.82;;;;;;;13.33;100.00;101882.16;5027818;28;20056;-75
2023/05/23 03:02:51;;;;;;;20.17;11.40;;;;;;;13.37;100.00;101880.16;5028632;28;20029;-75
2023/05/23 03:05:17;;;;;;;14.80;10.85;;;;;;;13.39;100.00;101887.03;5028942;28;20062;-75
2023/05/23 03:07:44;;;;;;;18.00;11.43;;;;;;;13.36;100.00;101881.09;5029456;28;20030;-75
2023/05/23 03:10:10;;;;;;;13.65;10.70;;;;;;;13.39;100.00;101883.53;5011649;28;20046;-75
2023/05/23 03:12:40;;;;;;;16.17;10.23;;;;;;;13.41;100.00;101884.28;5029943;28;20145;-78
2023/05/23 03:15:05;;;;;;;13.95;10.30;;;;;;;13.39;100.00;101887.03;5010538;28;20025;-75
2023/05/23 03:17:31;;;;;;;13.00;9.50;;;;;;;13.40;100.00;101879.94;5030223;28;20123;-75
2023/05/23 03:19:57;;;;;;;13.82;9.45;;;;;;;13.38;100.00;101889.78;5029759;28;20064;-75
2023/05/23 03:22:23;;;;;;;13.10;9.38;;;;;;;13.39;100.00;101886.19;5028664;28;20031;-74
2023/05/23 03:24:48;;;;;;;9.88;8.57;;;;;;;13.39;100.00;101887.03;5029447;28;20025;-74
2023/05/23 03:27:14;;;;;;;12.32;8.77;;;;;;;13.41;100.00;101885.13;5021259;28;20025;-74
2023/05/23 03:29:40;;;;;;;10.70;8.40;;;;;;;13.36;100.00;101886.38;5028948;28;20022;-74
2023/05/23 03:32:05;;;;;;;14.10;9.05;;;;;;;13.37;100.00;101894.22;5031855;28;20494;-74
2023/05/23 03:34:32;;;;;;;12.32;8.38;;;;;;;13.37;100.00;101893.38;5015238;28;20537;-74
2023/05/23 03:37:01;;;;;;;12.13;8.73;;;;;;;13.35;100.00;101900.56;5031730;28;20021;-74
2023/05/23 03:39:27;;;;;;;12.70;9.00;;;;;;;13.39;100.00;101896.75;5032855;28;20032;-74
2023/05/23 03:41:52;;;;;;;10.57;8.73;;;;;;;13.40;100.00;101893.16;5014693;28;20119;-74
2023/05/23 03:44:17;;;;;;;11.13;8.85;;;;;;;13.43;100.00;101895.59;5013092;28;20428;-74
2023/05/23 03:46:43;;;;;;;14.05;10.27;;;;;;;13.42;100.00;101892.09;5032317;28;20459;-74
2023/05/23 03:49:08;;;;;;;12.13;9.57;;;;;;;13.45;100.00;101898.97;5026966;28;20022;-74
2023/05/23 03:51:34;;;;;;;18.23;11.40;;;;;;;13.47;100.00;101894.41;5031564;28;20059;-74
2023/05/23 03:54:02;;;;;;;15.98;11.18;;;;;;;13.42;100.00;101902.66;5014090;28;20036;-73
2023/05/23 03:56:27;;;;;;;19.80;11.90;;;;;;;13.45;100.00;101901.59;5032230;28;20036;-74
2023/05/23 03:58:52;;;;;;;15.45;10.85;;;;;;;13.47;100.00;101907.63;5031966;28;20025;-74
2023/05/23 04:01:18;;;;;;;21.75;11.40;;;;;;;13.47;100.00;101907.63;5033252;28;20115;-74
2023/05/23 04:03:43;;;;;;;18.42;10.68;;;;;;;13.48;100.00;101912.81;5032927;28;20104;-74
2023/05/23 04:06:09;;;;;;;15.85;10.35;;;;;;;13.48;100.00;101911.97;5031131;28;20076;-74
2023/05/23 04:08:34;;;;;;;15.27;10.30;;;;;;;13.48;100.00;101906.69;5032984;28;20024;-75
2023/05/23 04:11:00;;;;;;;14.02;9.75;;;;;;;13.48;100.00;101914.63;5014860;28;20029;-75
2023/05/23 04:13:26;;;;;;;14.05;9.88;;;;;;;13.44;100.00;101907.84;5032839;28;20104;-75
2023/05/23 04:15:54;;;;;;;14.05;9.07;;;;;;;13.46;100.00;101919.16;5033080;28;20030;-75
2023/05/23 04:18:20;;;;;;;14.50;9.40;;;;;;;13.46;100.00;101914.72;5031842;28;20037;-75
2023/05/23 04:20:51;;;;;;;13.75;9.82;;;;;;;13.43;100.00;101919.38;5032638;28;20040;-75
2023/05/23 04:23:16;;;;;;;15.27;9.68;;;;;;;13.48;100.00;101918.09;5032875;28;20018;-75
2023/05/23 04:25:41;;;;;;;18.63;11.07;;;;;;;13.51;100.00;101922.34;5031621;28;20036;-75
2023/05/23 04:28:11;;;;;;;17.77;11.50;;;;;;;13.49;100.00;101929.53;5031447;28;20024;-75
2023/05/23 04:30:36;;;;;;;18.67;11.35;;;;;;;13.48;100.00;101923.41;5032116;28;20047;-75
2023/05/23 04:33:02;;;;;;;24.02;12.35;;;;;;;13.46;100.00;101929.75;5030307;28;20029;-75
2023/05/23 04:35:28;;;;;;;16.88;11.13;;;;;;;13.45;100.00;101928.91;5032375;28;20018;-75
2023/05/23 04:37:56;;;;;;;21.67;11.93;;;;;;;13.44;100.00;101926.34;5031333;28;20441;-74
2023/05/23 04:40:23;;;;;;;21.58;12.57;;;;;;;13.42;100.00;101939.69;5012454;28;20398;-73
2023/05/23 04:42:51;;;;;;;22.50;12.50;;;;;;;13.46;100.00;101945.59;5012579;28;20116;-73
2023/05/23 04:45:18;;;;;;;22.75;12.90;;;;;;;13.49;100.00;101935.66;5013996;28;20040;-74
2023/05/23 04:47:44;;;;;;;22.77;12.43;;;;;;;13.52;100.00;101934.59;5013173;28;20075;-74
2023/05/23 04:50:10;;;;;;;27.02;13.18;;;;;;;13.49;100.00;101948.88;5030742;28;20033;-74
2023/05/23 04:52:35;;;;;;;34.05;14.75;;;;;;;13.46;100.00;101950.91;5013489;28;20462;-74
2023/05/23 04:55:01;;;;;;;30.30;14.02;;;;;;;13.47;100.00;101952.59;5031034;28;20029;-74
2023/05/23 04:57:26;;;;;;;31.95;15.07;;;;;;;13.45;100.00;101954.50;5032345;28;20021;-75
2023/05/23 04:59:52;;;;;;;27.50;14.43;;;;;;;13.39;100.00;101957.56;5012557;28;20489;-74
2023/05/23 05:02:17;;;;;;;29.60;14.98;;;;;;;13.35;100.00;101950.78;5013046;28;20033;-73
2023/05/23 05:04:43;;;;;;;29.63;15.10;;;;;;;13.35;100.00;101958.72;5013633;28;20049;-74
2023/05/23 05:07:08;;;;;;;31.52;15.73;;;;;;;13.33;100.00;101961.47;5012794;28;20025;-75
2023/05/23 05:09:34;;;;;;;26.63;14.30;;;;;;;13.34;100.00;101972.88;5032070;28;20428;-74
2023/05/23 05:12:02;;;;;;;32.58;15.32;;;;;;;13.32;100.00;101967.69;5014004;28;20467;-74
2023/05/23 05:14:27;;;;;;;32.58;14.90;;;;;;;13.30;100.00;101966.13;5031681;28;20087;-75
2023/05/23 05:16:56;;;;;;;34.53;15.43;;;;;;;13.28;100.00;101962.72;5031787;28;20382;-75
2023/05/23 05:19:23;;;;;;;33.88;15.57;;;;;;;13.28;100.00;101968.00;5031706;28;20021;-74
2023/05/23 05:21:48;;;;;;;31.52;15.60;;;;;;;13.30;100.00;101982.81;5013165;28;20029;-74
2023/05/23 05:24:14;;;;;;;33.08;14.75;;;;;;;13.24;100.00;101980.59;5030098;28;20132;-74
2023/05/23 05:26:40;;;;;;;40.20;15.60;;;;;;;13.21;100.00;101990.50;5031681;28;20056;-74
2023/05/23 05:29:05;;;;;;;38.25;15.02;;;;;;;13.21;100.00;101987.84;5031007;28;20056;-74
2023/05/23 05:31:31;;;;;;;31.75;15.18;;;;;;;13.17;100.00;101988.06;5031459;28;20440;-74
2023/05/23 05:33:57;;;;;;;32.30;15.40;;;;;;;13.15;100.00;101989.91;5030406;28;20029;-75
2023/05/23 05:36:22;;;;;;;34.42;15.13;;;;;;;13.11;100.00;101988.44;5030493;28;20120;-74
2023/05/23 05:38:52;;;;;;;32.28;13.77;;;;;;;13.10;100.00;101997.31;5030263;28;20026;-74
2023/05/23 05:41:18;;;;;;;31.83;13.65;;;;;;;13.04;100.00;102000.38;5028406;28;20033;-74
2023/05/23 05:43:44;;;;;;;28.63;13.05;;;;;;;13.06;100.00;101995.81;5011908;28;20025;-74
2023/05/23 05:46:10;;;;;;;32.63;13.30;;;;;;;13.02;100.00;102009.34;5029518;28;20033;-74
2023/05/23 05:48:38;;;;;;;31.83;12.20;;;;;;;13.03;100.00;102016.31;5029851;28;20021;-74
2023/05/23 05:51:04;;;;;;;26.40;11.90;;;;;;;13.04;100.00;102008.28;5028546;28;20021;-74
2023/05/23 05:53:29;;;;;;;30.17;12.45;;;;;;;13.03;100.00;102006.59;5029913;28;20027;-74
2023/05/23 05:55:55;;;;;;;30.33;12.27;;;;;;;13.07;100.00;102016.00;5029167;28;20439;-74
2023/05/23 05:58:20;;;;;;;29.30;12.88;;;;;;;13.06;100.00;102011.69;5029985;28;20021;-74
2023/05/23 06:00:47;;;;;;;28.80;11.65;;;;;;;12.97;99.82;102016.72;5029994;28;20425;-74
2023/05/23 06:03:13;;;;;;;26.65;10.43;;;;;;;12.92;98.95;102018.81;5010541;28;20071;-74
2023/05/23 06:05:39;;;;;;;33.38;12.70;;;;;;;12.86;99.97;102014.78;5029704;28;20041;-74
2023/05/23 06:08:05;;;;;;;24.80;11.10;;;;;;;12.80;99.35;102020.44;5029173;28;20108;-73
2023/05/23 06:10:31;;;;;;;28.10;10.75;;;;;;;12.74;99.36;102026.97;5029378;28;20116;-73
2023/05/23 06:12:58;;;;;;;25.60;11.20;;;;;;;12.73;99.08;102029.72;5030214;28;20040;-74
2023/05/23 06:15:25;;;;;;;19.60;8.90;;;;;;;12.67;98.94;102027.47;5030081;28;20025;-73
2023/05/23 06:17:51;;;;;;;19.98;8.90;;;;;;;12.67;99.10;102035.38;5029351;28;20029;-74
2023/05/23 06:20:17;;;;;;;20.45;9.23;;;;;;;12.64;99.48;102033.78;5012070;28;20083;-74
2023/05/23 06:22:42;;;;;;;19.70;8.93;;;;;;;12.66;99.77;102039.81;5030829;28;20689;-74
2023/05/23 06:25:08;;;;;;;19.10;9.70;;;;;;;12.71;99.53;102042.16;5028827;28;20022;-74
2023/05/23 06:27:33;;;;;;;17.77;8.30;;;;;;;12.71;99.22;102040.38;5030305;28;20029;-74
2023/05/23 06:30:03;;;;;;;15.63;7.93;;;;;;;12.70;99.30;102049.25;5029175;28;20029;-74
2023/05/23 06:32:29;;;;;;;14.20;7.15;;;;;;;12.73;98.62;102045.56;5029301;28;20037;-74
2023/05/23 06:34:54;;;;;;;14.70;6.97;;;;;;;12.68;96.93;102042.38;5029013;28;20026;-73
2023/05/23 06:37:20;;;;;;;14.65;6.95;;;;;;;12.65;97.02;102046.03;5028619;28;20017;-74
2023/05/23 06:39:45;;;;;;;14.52;6.78;;;;;;;12.63;96.89;102047.09;5028216;28;20024;-74
2023/05/23 06:42:10;;;;;;;17.10;6.90;;;;;;;12.62;96.53;102053.31;5028485;28;20474;-74
2023/05/23 06:44:35;;;;;;;16.02;7.18;;;;;;;12.62;96.66;102058.59;5011823;28;20490;-74
2023/05/23 06:47:01;;;;;;;14.25;6.60;;;;;;;12.62;96.52;102069.16;5027905;28;20083;-75
2023/05/23 06:49:26;;;;;;;15.95;7.03;;;;;;;12.58;96.91;102068.50;5024929;28;20053;-74
2023/05/23 06:51:51;;;;;;;17.45;6.72;;;;;;;12.59;96.19;102069.34;5028544;28;20053;-74
2023/05/23 06:54:18;;;;;;;14.23;6.63;;;;;;;12.54;96.74;102074.94;5026918;28;20041;-74
2023/05/23 06:56:43;;;;;;;17.42;8.15;;;;;;;12.58;97.08;102083.50;5029355;28;20035;-74
2023/05/23 06:59:08;;;;;;;19.33;7.93;;;;;;;12.52;96.95;102080.31;5027758;28;20112;-75
2023/05/23 07:01:34;;;;;;;18.83;7.25;;;;;;;12.55;96.93;102090.66;5029047;28;20427;-75
2023/05/23 07:04:03;;;;;;;14.13;6.80;;;;;;;12.57;96.47;102087.09;5029184;28;20037;-75
2023/05/23 07:06:28;;;;;;;15.30;6.72;;;;;;;12.53;95.74;102095.19;5035347;28;20040;-74
2023/05/23 07:08:53;;;;;;;17.15;7.22;;;;;;;12.57;96.11;102087.09;5034838;28;20033;-75
2023/05/23 07:11:20;;;;;;;15.35;6.70;;;;;;;12.58;94.94;102094.91;5035693;28;20029;-75
2023/05/23 07:13:51;;;;;;;16.63;6.70;;;;;;;12.54;93.28;102098.69;5035999;28;20033;-74
2023/05/23 07:16:16;;;;;;;18.23;6.50;;;;;;;12.52;92.24;102104.06;5018343;28;20505;-73
2023/05/23 07:18:42;;;;;;;14.57;6.20;;;;;;;12.55;91.08;102095.09;5035151;28;20119;-74
2023/05/23 07:21:07;;;;;;;18.02;6.82;;;;;;;12.60;91.04;102105.38;5035482;28;20128;-73
2023/05/23 07:23:33;;;;;;;13.90;5.82;;;;;;;12.64;90.21;102104.22;5037004;28;20029;-74
2023/05/23 07:26:01;;;;;;;17.45;6.88;;;;;;;12.74;89.24;102110.63;5036258;28;20026;-74
2023/05/23 07:28:27;;;;;;;10.07;5.47;;;;;;;12.79;88.05;102104.09;5035666;28;20397;-75
2023/05/23 07:30:53;;;;;;;16.75;6.82;;;;;;;12.89;87.67;102109.69;5036014;28;20022;-74
2023/05/23 07:33:19;;;;;;;17.60;6.88;;;;;;;12.98;85.05;102109.09;5032432;28;20036;-74
2023/05/23 07:35:45;;;;;;;18.10;7.05;;;;;;;13.03;84.12;102112.28;5035684;28;20021;-74
2023/05/23 07:38:10;;;;;;;14.25;6.20;;;;;;;13.17;82.46;102109.63;5034602;28;20025;-74
2023/05/23 07:40:37;;;;;;;15.88;6.30;;;;;;;13.46;81.60;102114.81;5034833;28;20026;-74
2023/05/23 07:43:03;;;;;;;14.43;6.47;;;;;;;13.55;79.43;102114.19;5034395;28;20025;-75
2023/05/23 07:45:28;;;;;;;15.73;6.88;;;;;;;13.50;78.09;102121.59;5017962;28;20056;-74
2023/05/23 07:47:53;;;;;;;14.07;7.18;;;;;;;13.54;78.39;102114.31;5016759;28;20029;-75
2023/05/23 07:50:19;;;;;;;15.18;6.93;;;;;;;13.58;78.16;102119.28;5016131;28;20034;-74
2023/05/23 07:52:45;;;;;;;16.33;6.43;;;;;;;13.58;78.48;102126.38;5035194;28;20036;-75
2023/05/23 07:55:12;;;;;;;17.55;7.25;;;;;;;13.57;78.48;102128.16;5034173;28;20022;-75
2023/05/23 07:57:37;;;;;;;16.38;6.43;;;;;;;13.53;78.74;102126.69;5016899;28;20029;-74
2023/05/23 08:00:04;;;;;;;19.35;7.10;;;;;;;13.44;79.81;102136.06;5034471;28;20036;-74
2023/05/23 08:02:31;;;;;;;18.95;7.50;;;;;;;13.45;80.04;102136.91;5016915;28;20053;-74
2023/05/23 08:04:58;;;;;;;17.70;7.65;;;;;;;13.48;80.07;102129.63;5035095;28;20060;-74
2023/05/23 08:07:24;;;;;;;15.45;7.18;;;;;;;13.47;80.68;102132.38;5017535;28;20646;-74
2023/05/23 08:09:49;;;;;;;17.20;7.22;;;;;;;13.55;79.80;102137.16;5034678;28;20056;-75
2023/05/23 08:12:15;;;;;;;17.65;7.30;;;;;;;13.63;79.25;102148.94;5035216;28;20025;-74
2023/05/23 08:14:40;;;;;;;18.50;7.00;;;;;;;13.73;80.07;102142.09;5035730;28;20509;-75
2023/05/23 08:17:05;;;;;;;17.38;7.13;;;;;;;13.92;79.38;102149.63;5028696;28;20018;-75
2023/05/23 08:19:31;;;;;;;11.98;6.40;;;;;;;14.01;77.78;102153.50;5031688;28;20474;-75
2023/05/23 08:21:56;;;;;;;16.55;6.82;;;;;;;14.08;77.06;102149.47;5032271;28;20040;-75
2023/05/23 08:24:21;;;;;;;15.07;6.60;;;;;;;14.16;76.72;102141.84;5031560;28;20025;-74
2023/05/23 08:26:47;;;;;;;15.85;6.88;;;;;;;14.17;76.00;102148.00;5033047;28;20040;-75
2023/05/23 08:29:13;;;;;;;16.23;6.93;;;;;;;14.08;75.63;102145.03;5014852;28;20466;-74
2023/05/23 08:31:39;;;;;;;14.55;6.95;;;;;;;14.09;77.04;102145.88;5032683;28;20079;-75
2023/05/23 08:34:05;;;;;;;16.08;6.72;;;;;;;14.08;76.56;102150.31;5032092;28;20033;-75
2023/05/23 08:36:35;;;;;;;15.07;6.68;;;;;;;14.01;77.61;102154.34;5032772;28;20029;-74
2023/05/23 08:39:01;;;;;;;17.42;7.20;;;;;;;13.90;77.49;102151.53;5013507;28;20037;-74
2023/05/23 08:41:28;;;;;;;18.73;7.20;;;;;;;13.99;77.60;102150.91;5032950;28;20044;-74
2023/05/23 08:43:53;;;;;;;21.67;7.00;;;;;;;14.13;79.58;102155.28;5014457;28;20060;-74
2023/05/23 08:46:21;;;;;;;14.35;6.32;;;;;;;14.09;78.56;102153.81;5030875;28;20060;-75
2023/05/23 08:48:53;;;;;;;12.73;6.57;;;;;;;14.16;78.61;102160.38;5032058;28;20026;-75
2023/05/23 08:51:21;;;;;;;13.45;6.28;;;;;;;14.17;78.01;102153.28;5014020;28;20060;-74
2023/05/23 08:53:47;;;;;;;18.88;6.22;;;;;;;14.09;77.84;102153.81;5031818;28;20033;-73
2023/05/23 08:56:15;;;;;;;20.23;5.75;;;;;;;14.19;78.62;102165.47;5012832;28;20473;-74
2023/05/23 08:58:42;;;;;;;16.67;5.25;;;;;;;14.36;79.12;102165.13;5030928;28;20112;-74
2023/05/23 09:01:12;;;;;;;25.60;5.63;;;;;;;14.54;79.30;102172.81;5012544;28;20025;-74
2023/05/23 09:03:39;;;;;;;17.63;5.53;;;;;;;14.51;78.77;102173.88;5031250;28;20392;-75
2023/05/23 09:06:08;;;;;;;22.08;6.68;;;;;;;14.57;79.23;102177.91;5029517;28;20052;-74
2023/05/23 09:08:35;;;;;;;11.45;5.43;;;;;;;14.51;78.01;102167.72;5030637;28;20033;-74
2023/05/23 09:11:01;;;;;;;13.65;6.30;;;;;;;14.48;78.38;102168.81;5030943;28;20538;-74
2023/05/23 09:13:32;;;;;;;11.55;6.05;;;;;;;14.76;79.02;102183.59;5031786;28;20033;-74
2023/05/23 09:16:04;;;;;;;14.35;6.00;;;;;;;15.10;76.61;102175.91;5031289;28;20075;-74
2023/05/23 09:18:34;;;;;;;13.13;6.00;;;;;;;15.31;76.90;102175.22;5031659;28;20085;-74
2023/05/23 09:21:04;;;;;;;13.95;5.38;;;;;;;15.34;74.79;102175.00;5029681;28;20414;-74
2023/05/23 09:23:33;;;;;;;13.20;4.90;;;;;;;15.28;73.25;102177.25;5029963;28;20037;-74
2023/05/23 09:26:09;;;;;;;16.10;4.32;;;;;;;15.04;72.90;102178.03;5031467;28;20025;-74
2023/05/23 09:28:36;;;;;;;14.90;4.05;;;;;;;14.94;71.84;102182.31;5031194;28;20022;-74
2023/05/23 09:31:06;;;;;;;13.93;4.47;;;;;;;14.85;71.80;102182.97;5030786;28;20026;-74
2023/05/23 09:33:51;;;;;;;11.68;3.40;;;;;;;14.89;70.88;102189.75;5030853;28;20049;-73
2023/05/23 09:36:17;;;;;;;11.95;3.80;;;;;;;14.93;70.18;102190.38;5012041;28;20697;-74
2023/05/23 09:38:45;;;;;;;14.30;3.60;;;;;;;14.75;68.04;102187.19;5012277;28;20033;-74
2023/05/23 09:41:11;;;;;;;11.60;3.35;;;;;;;14.72;68.40;102176.81;5030136;28;20038;-74
2023/05/23 09:43:53;;;;;;;22.50;4.28;;;;;;;14.79;69.23;102188.69;5031390;28;20079;-74
2023/05/23 09:46:20;;;;;;;17.10;4.05;;;;;;;14.82;68.00;102188.50;5030840;28;20025;-74
2023/05/23 09:48:51;;;;;;;13.85;3.70;;;;;;;14.87;68.24;102191.66;5012317;28;20032;-75
2023/05/23 09:51:24;;;;;;;13.57;3.80;;;;;;;15.13;67.18;102189.78;5030123;28;20029;-74
2023/05/23 09:53:50;;;;;;;15.18;3.65;;;;;;;15.23;67.10;102184.69;5013589;28;20171;-74
2023/05/23 09:56:17;;;;;;;15.18;4.22;;;;;;;15.23;67.10;102184.69;5030540;28;20025;-74
2023/05/23 09:58:46;;;;;;;12.65;3.92;;;;;;;15.24;66.39;102183.72;5029880;28;20367;-74
2023/05/23 10:01:12;;;;;;;11.20;3.58;;;;;;;15.15;65.63;102194.97;5029839;28;20083;-75
2023/05/23 10:03:56;;;;;;;12.02;3.40;;;;;;;15.12;69.24;102188.09;5029265;28;20025;-74
2023/05/23 10:06:30;;;;;;;14.93;3.45;;;;;;;15.17;67.10;102190.41;5029397;28;20033;-74
2023/05/23 10:09:00;;;;;;;14.45;3.72;;;;;;;15.21;65.59;102195.41;5029887;28;20091;-74
2023/05/23 10:11:35;;;;;;;15.15;3.72;;;;;;;15.38;66.15;102183.56;5029992;28;20029;-75
2023/05/23 10:14:09;;;;;;;14.00;3.95;;;;;;;15.38;64.86;102188.88;5029196;28;20063;-75
2023/05/23 10:16:49;;;;;;;20.38;4.15;;;;;;;15.49;65.22;102188.09;5029157;28;20108;-74
2023/05/23 10:19:25;;;;;;;17.58;3.88;;;;;;;15.60;63.70;102181.06;5029125;28;20390;-75
2023/05/23 10:22:02;;;;;;;17.17;4.45;;;;;;;15.79;63.75;102180.56;5011648;28;20029;-75
2023/05/23 10:24:28;;;;;;;14.88;3.90;;;;;;;16.00;63.64;102175.41;5027407;28;20033;-75
2023/05/23 10:26:57;;;;;;;11.65;3.60;;;;;;;16.10;65.01;102181.75;5029441;28;20017;-75
2023/05/23 10:29:27;;;;;;;14.75;3.63;;;;;;;16.11;61.88;102194.06;5029483;28;20466;-74
2023/05/23 10:31:53;;;;;;;11.15;3.70;;;;;;;16.19;60.70;102178.38;5011675;28;20037;-74
2023/05/23 10:34:33;;;;;;;13.73;3.55;;;;;;;16.33;60.53;102187.94;5029774;28;20052;-74
2023/05/23 10:37:04;;;;;;;14.30;3.70;;;;;;;16.36;61.44;102190.38;5030100;28;20495;-75
2023/05/23 10:39:50;;;;;;;11.82;3.72;;;;;;;16.46;59.87;102187.88;5010992;28;20048;-75
2023/05/23 10:42:26;;;;;;;16.40;3.95;;;;;;;16.66;59.01;102192.50;5029742;28;20029;-75
2023/05/23 10:44:51;;;;;;;15.80;3.90;;;;;;;16.81;57.00;102186.00;5029498;28;20388;-74
2023/05/23 10:47:28;;;;;;;17.77;3.67;;;;;;;17.15;57.87;102185.94;5029778;28;20037;-74
2023/05/23 10:49:54;;;;;;;13.30;3.28;;;;;;;17.53;56.44;102173.03;5029361;28;20025;-75
2023/05/23 10:52:22;;;;;;;14.23;4.45;;;;;;;17.65;54.67;102170.34;5029011;28;20029;-75
2023/05/23 10:54:50;;;;;;;19.02;4.82;;;;;;;17.84;55.00;102186.50;5029183;28;20025;-74
2023/05/23 10:57:18;;;;;;;12.27;3.72;;;;;;;17.59;50.97;102178.81;5028714;28;20359;-74
2023/05/23 10:59:45;;;;;;;13.23;4.35;;;;;;;17.63;50.07;102178.47;5010587;28;20018;-74
2023/05/23 11:02:17;;;;;;;12.95;3.55;;;;;;;17.79;51.19;102183.38;5027761;28;20117;-74
2023/05/23 11:04:42;;;;;;;12.07;3.90;;;;;;;17.96;51.86;102180.16;5028769;28;20072;-74
2023/05/23 11:07:32;;;;;;;12.05;3.97;;;;;;;18.32;53.56;102176.19;5027192;28;20944;-75
2023/05/23 11:10:15;;;;;;;14.38;3.58;;;;;;;18.72;52.58;102178.13;5028761;28;20047;-74
2023/05/23 11:12:42;;;;;;;;;;;;;;;18.94;54.10;102182.41;5028441;28;20025;-74